Campbell Foss — WDC7754 — position and weather

sailwx.info

Track history (hours):
 
Tides and Currents Weather Stations Pressure Air Temp Water Temp Dewpoint Dewpoint Depression Visibility Wind Speed Wind Dir Waves Ship Positions

Campbell Foss

Owner: Foss Maritime Co., Seattle, WA. More information available from US FCC via Universal Licensing System and Coast Guard Vessel Documentation Center.

Last reported at 2014-Dec-20 13:33 UTC. Time now 2014-Dec-20 13:41 UTC.
Position N 33°46' W 118°13'.

Length 23 m; draft 16 m.

Type: Tug. MMSI: 367076360.

Date/timePositionNaut miles runAvg speedWind from/ knotsBaromVisibWave heightAir tempDewpointWater temp
2014-Dec-20 13:33N 33°46' W 118°13'1 0.8
2014-Dec-20 12:33N 33°46' W 118°13'0 0.0
2014-Dec-20 11:33N 33°46' W 118°13'0 0.0
2014-Dec-20 10:33N 33°46' W 118°13'0 0.0
2014-Dec-20 09:33N 33°46' W 118°13'0 0.0
2014-Dec-20 08:33N 33°46' W 118°13'0 0.0
2014-Dec-20 07:33N 33°46' W 118°13'0 0.0
2014-Dec-20 06:32N 33°46' W 118°13'0 0.0
2014-Dec-20 05:33N 33°46' W 118°13'0 0.0
2014-Dec-20 04:33N 33°46' W 118°13'0 0.0
2014-Dec-20 03:33N 33°46' W 118°13'0 0.0
2014-Dec-20 02:33N 33°46' W 118°13'0 0.0
2014-Dec-20 01:33N 33°46' W 118°13'0 0.0
2014-Dec-20 00:33N 33°46' W 118°13'0 0.0
2014-Dec-19 23:33N 33°46' W 118°13'0 0.5
2014-Dec-19 22:33N 33°46' W 118°13'2 0.8
2014-Dec-19 19:21N 33°45' W 118°16'2 2.4
2014-Dec-19 18:33N 33°46' W 118°14'1 0.3
2014-Dec-19 16:33N 33°46' W 118°13'0 0.4
2014-Dec-19 15:34N 33°46' W 118°13'0 0.0
2014-Dec-19 14:33N 33°46' W 118°13'0 0.0
2014-Dec-19 13:33N 33°46' W 118°13'1 1.4
2014-Dec-19 12:34N 33°46' W 118°14'1 0.7
2014-Dec-19 10:33N 33°45' W 118°13'1 1.2
2014-Dec-19 09:33N 33°46' W 118°13'0 0.0
2014-Dec-19 08:34N 33°46' W 118°13'0 0.0
2014-Dec-19 07:34N 33°46' W 118°13'0 0.0
2014-Dec-19 06:34N 33°46' W 118°13'0 0.0
2014-Dec-19 05:34N 33°46' W 118°13'0 0.0
2014-Dec-19 04:34N 33°46' W 118°13'0 0.0
2014-Dec-19 03:34N 33°46' W 118°13'0 0.0
2014-Dec-19 02:33N 33°46' W 118°13'1 1.0
2014-Dec-19 01:31N 33°46' W 118°14'1 0.8
2014-Dec-19 00:34N 33°46' W 118°13'1 1.2
2014-Dec-18 23:33N 33°45' W 118°12'1 0.7
2014-Dec-18 22:25N 33°45' W 118°13'0 0.4
2014-Dec-18 21:09N 33°46' W 118°13'1 0.7
2014-Dec-18 19:26N 33°45' W 118°12'1 0.7
2014-Dec-18 17:33N 33°44' W 118°14'0 0.0
2014-Dec-18 16:33N 33°44' W 118°14'3 0.9
2014-Dec-18 13:32N 33°44' W 118°11'1 1.3
2014-Dec-18 12:30N 33°44' W 118°12'2 2.2
2014-Dec-18 11:34N 33°46' W 118°13'0 0.0
2014-Dec-18 10:34N 33°46' W 118°13'0 0.0
2014-Dec-18 09:34N 33°46' W 118°13'0 0.0
2014-Dec-18 08:33N 33°46' W 118°13'0 0.0
2014-Dec-18 07:34N 33°46' W 118°13'0 0.0
2014-Dec-18 06:33N 33°46' W 118°13'0 0.0
2014-Dec-18 05:33N 33°46' W 118°13'0 0.0
2014-Dec-18 04:34N 33°46' W 118°13'0 0.0
2014-Dec-18 03:34N 33°46' W 118°13'0 0.0
2014-Dec-18 02:33N 33°46' W 118°13'0 0.0
2014-Dec-18 01:34N 33°46' W 118°13'0 0.0
2014-Dec-18 00:34N 33°46' W 118°13'1 1.0
2014-Dec-17 23:34N 33°46' W 118°14'2 0.7
2014-Dec-17 21:04N 33°45' W 118°13'0 0.5
2014-Dec-17 20:19N 33°44' W 118°13'2 2.3
2014-Dec-17 19:31N 33°46' W 118°13'0 0.0
2014-Dec-17 18:34N 33°46' W 118°13'0 0.0
2014-Dec-17 17:28N 33°46' W 118°13'2 2.6
2014-Dec-17 16:33N 33°46' W 118°16'2 0.4
2014-Dec-17 12:05N 33°44' W 118°15'2 2.8
2014-Dec-17 11:24N 33°45' W 118°13'1 1.2
2014-Dec-17 10:33N 33°46' W 118°13'0 0.0
2014-Dec-17 09:33N 33°46' W 118°13'1 1.3
2014-Dec-17 08:33N 33°45' W 118°13'0 0.1
2014-Dec-17 05:33N 33°45' W 118°13'0 0.0
2014-Dec-17 04:33N 33°45' W 118°13'0 0.0
2014-Dec-17 03:33N 33°45' W 118°13'0 0.4
2014-Dec-17 02:31N 33°45' W 118°12'2 1.5
2014-Dec-17 01:03N 33°43' W 118°11'2 3.4
2014-Dec-17 00:33N 33°44' W 118°12'1 0.4
2014-Dec-16 21:18N 33°46' W 118°13'0 0.0
2014-Dec-16 20:33N 33°46' W 118°13'0 0.0
2014-Dec-16 19:29N 33°46' W 118°13'2 1.8
2014-Dec-16 18:21N 33°46' W 118°16'0 0.2
2014-Dec-16 17:33N 33°46' W 118°16'0 0.0
2014-Dec-16 16:20N 33°46' W 118°16'0 0.0
2014-Dec-16 15:32N 33°46' W 118°16'3 2.6
2014-Dec-16 14:32N 33°45' W 118°13'1 0.8
2014-Dec-16 13:33N 33°44' W 118°14'2 1.7
2014-Dec-16 12:33N 33°46' W 118°13'0 0.3
2014-Dec-16 11:33N 33°46' W 118°14'1 0.8
2014-Dec-16 10:33N 33°46' W 118°13'0 0.0
2014-Dec-16 09:33N 33°46' W 118°13'0 0.0
2014-Dec-16 08:33N 33°46' W 118°13'0 0.0
2014-Dec-16 07:33N 33°46' W 118°13'0 0.0
2014-Dec-16 06:33N 33°46' W 118°13'2 0.4
2014-Dec-16 02:17N 33°45' W 118°12'0 0.4
2014-Dec-16 01:04N 33°45' W 118°12'1 0.5
2014-Dec-15 23:33N 33°45' W 118°13'1 0.3
2014-Dec-15 20:15N 33°46' W 118°13'3 1.0
2014-Dec-15 17:11N 33°45' W 118°16'1 0.2
2014-Dec-15 14:20N 33°46' W 118°16'2 0.7
2014-Dec-15 11:33N 33°46' W 118°14'1 0.7
2014-Dec-15 10:33N 33°46' W 118°13'0 0.0
2014-Dec-15 09:33N 33°46' W 118°13'0 0.0
2014-Dec-15 08:33N 33°46' W 118°13'0 0.0
2014-Dec-15 07:33N 33°46' W 118°13'0 0.0
2014-Dec-15 06:33N 33°46' W 118°13'0 0.0
2014-Dec-15 05:33N 33°46' W 118°13'0 0.0
2014-Dec-15 04:33N 33°46' W 118°13'0 0.0
2014-Dec-15 03:33N 33°46' W 118°13'0 0.0
2014-Dec-15 02:33N 33°46' W 118°13'0 0.0
2014-Dec-15 01:33N 33°46' W 118°13'0 0.0
2014-Dec-15 00:33N 33°46' W 118°13'0 0.0
2014-Dec-14 23:33N 33°46' W 118°13'0 0.0
2014-Dec-14 22:33N 33°46' W 118°13'0 0.0
2014-Dec-14 21:33N 33°46' W 118°13'0 0.0
2014-Dec-14 20:33N 33°46' W 118°13'0 0.0
2014-Dec-14 19:33N 33°46' W 118°13'0 0.0
2014-Dec-14 18:33N 33°46' W 118°13'0 0.0
2014-Dec-14 17:33N 33°46' W 118°13'0 0.0
2014-Dec-14 16:33N 33°46' W 118°13'0 0.0
2014-Dec-14 15:33N 33°46' W 118°13'1 1.3
2014-Dec-14 14:33N 33°45' W 118°12'1 1.3
2014-Dec-14 13:32N 33°46' W 118°13'0 0.0
2014-Dec-14 12:33N 33°46' W 118°13'0 0.0
2014-Dec-14 11:33N 33°46' W 118°13'0 0.0
2014-Dec-14 10:33N 33°46' W 118°13'0 0.0
2014-Dec-14 09:33N 33°46' W 118°13'2 1.2
2014-Dec-14 08:13N 33°45' W 118°13'1 1.0
2014-Dec-14 07:31N 33°45' W 118°13'0 0.3
2014-Dec-14 06:32N 33°45' W 118°13'0 0.0
2014-Dec-14 05:04N 33°45' W 118°13'0 0.4
2014-Dec-14 04:04N 33°45' W 118°13'1 0.7
2014-Dec-14 02:33N 33°46' W 118°13'0 0.4
2014-Dec-14 01:33N 33°46' W 118°13'0 0.5
2014-Dec-14 00:33N 33°46' W 118°13'0 0.0
2014-Dec-13 23:33N 33°46' W 118°13'0 0.0
2014-Dec-13 22:33N 33°46' W 118°13'0 0.0
2014-Dec-13 21:33N 33°46' W 118°13'2 1.7
2014-Dec-13 20:32N 33°45' W 118°12'3 2.6
2014-Dec-13 19:22N 33°45' W 118°16'1 0.8
2014-Dec-13 18:27N 33°46' W 118°15'0 0.1
2014-Dec-13 17:30N 33°46' W 118°15'0 0.0
2014-Dec-13 16:19N 33°46' W 118°15'0 0.3
2014-Dec-13 15:33N 33°46' W 118°15'2 2.4
2014-Dec-13 14:33N 33°45' W 118°12'0 0.2
2014-Dec-13 11:33N 33°45' W 118°13'1 1.3
2014-Dec-13 10:33N 33°46' W 118°13'0 0.0
2014-Dec-13 09:33N 33°46' W 118°13'0 0.0
2014-Dec-13 08:33N 33°46' W 118°13'0 0.0
2014-Dec-13 07:33N 33°46' W 118°13'0 0.0
2014-Dec-13 06:33N 33°46' W 118°13'0 0.0
2014-Dec-13 05:33N 33°46' W 118°13'0 0.0
2014-Dec-13 04:33N 33°46' W 118°13'0 0.0
2014-Dec-13 03:33N 33°46' W 118°13'0 0.0
2014-Dec-13 02:33N 33°46' W 118°13'0 0.0
2014-Dec-13 01:33N 33°46' W 118°13'2 0.4
2014-Dec-12 19:04N 33°44' W 118°12'1 0.3
2014-Dec-12 16:06N 33°45' W 118°12'1 0.4
2014-Dec-12 14:30N 33°44' W 118°12'0 0.2
2014-Dec-12 12:24N 33°44' W 118°11'2 1.6
2014-Dec-12 11:19N 33°45' W 118°13'1 1.2
2014-Dec-12 10:21N 33°46' W 118°13'0 0.0
2014-Dec-12 09:33N 33°46' W 118°13'0 0.0
2014-Dec-12 08:33N 33°46' W 118°13'0 0.0
2014-Dec-12 07:33N 33°46' W 118°13'3 0.4
2014-Dec-11 23:18N 33°45' W 118°16'2 2.1
2014-Dec-11 22:09N 33°45' W 118°13'1 1.0
2014-Dec-11 21:31N 33°46' W 118°13'1 0.6
2014-Dec-11 20:30N 33°46' W 118°13'2 1.7
2014-Dec-11 19:33N 33°46' W 118°15'2 0.5
2014-Dec-11 16:33N 33°45' W 118°13'1 0.6
2014-Dec-11 15:32N 33°46' W 118°13'0 0.0
2014-Dec-11 14:29N 33°46' W 118°13'1 0.6
2014-Dec-11 13:33N 33°46' W 118°14'0 0.1
2014-Dec-11 11:33N 33°46' W 118°13'1 0.4
2014-Dec-11 10:25N 33°46' W 118°13'0 0.0
2014-Dec-11 09:31N 33°46' W 118°13'0 0.0
2014-Dec-11 08:31N 33°46' W 118°13'0 0.0
2014-Dec-11 07:31N 33°46' W 118°13'0 0.0
2014-Dec-11 06:30N 33°46' W 118°13'3 2.4
2014-Dec-11 05:22N 33°44' W 118°12'1 0.7
2014-Dec-11 04:26N 33°44' W 118°12'1 1.4
2014-Dec-11 03:29N 33°45' W 118°13'1 0.6
2014-Dec-11 02:33N 33°45' W 118°14'1 1.4
2014-Dec-11 01:33N 33°45' W 118°12'1 1.0
2014-Dec-11 00:32N 33°44' W 118°12'1 0.6
2014-Dec-10 23:32N 33°44' W 118°12'1 1.5
2014-Dec-10 22:33N 33°46' W 118°13'1 0.6
2014-Dec-10 21:33N 33°46' W 118°13'0 0.0
2014-Dec-10 20:33N 33°46' W 118°13'0 0.0
2014-Dec-10 19:33N 33°46' W 118°13'0 0.0
2014-Dec-10 18:33N 33°46' W 118°13'0 0.0
2014-Dec-10 17:33N 33°46' W 118°13'1 1.2
2014-Dec-10 16:33N 33°46' W 118°14'1 1.1
2014-Dec-10 15:32N 33°45' W 118°13'  
Track history (hours):
 
Tides and Currents Weather Stations Pressure Air Temp Water Temp Dewpoint Dewpoint Depression Visibility Wind Speed Wind Dir Waves Ship Positions

Campbell Foss

Owner: Foss Maritime Co., Seattle, WA. More information available from US FCC via Universal Licensing System and Coast Guard Vessel Documentation Center.

Last reported at 2014-Dec-20 13:33 UTC. Time now 2014-Dec-20 13:41 UTC.
Position N 33°46' W 118°13'.

Length 23 m; draft 16 m.

Type: Tug. MMSI: 367076360.

Date/timePositionNaut miles runAvg speedWind from/ knotsBaromVisibWave heightAir tempDewpointWater temp
2014-Dec-20 13:33N 33°46' W 118°13'1 0.8
2014-Dec-20 12:33N 33°46' W 118°13'0 0.0
2014-Dec-20 11:33N 33°46' W 118°13'0 0.0
2014-Dec-20 10:33N 33°46' W 118°13'0 0.0
2014-Dec-20 09:33N 33°46' W 118°13'0 0.0
2014-Dec-20 08:33N 33°46' W 118°13'0 0.0
2014-Dec-20 07:33N 33°46' W 118°13'0 0.0
2014-Dec-20 06:32N 33°46' W 118°13'0 0.0
2014-Dec-20 05:33N 33°46' W 118°13'0 0.0
2014-Dec-20 04:33N 33°46' W 118°13'0 0.0
2014-Dec-20 03:33N 33°46' W 118°13'0 0.0
2014-Dec-20 02:33N 33°46' W 118°13'0 0.0
2014-Dec-20 01:33N 33°46' W 118°13'0 0.0
2014-Dec-20 00:33N 33°46' W 118°13'0 0.0
2014-Dec-19 23:33N 33°46' W 118°13'0 0.5
2014-Dec-19 22:33N 33°46' W 118°13'2 0.8
2014-Dec-19 19:21N 33°45' W 118°16'2 2.4
2014-Dec-19 18:33N 33°46' W 118°14'1 0.3
2014-Dec-19 16:33N 33°46' W 118°13'0 0.4
2014-Dec-19 15:34N 33°46' W 118°13'0 0.0
2014-Dec-19 14:33N 33°46' W 118°13'0 0.0
2014-Dec-19 13:33N 33°46' W 118°13'1 1.4
2014-Dec-19 12:34N 33°46' W 118°14'1 0.7
2014-Dec-19 10:33N 33°45' W 118°13'1 1.2
2014-Dec-19 09:33N 33°46' W 118°13'0 0.0
2014-Dec-19 08:34N 33°46' W 118°13'0 0.0
2014-Dec-19 07:34N 33°46' W 118°13'0 0.0
2014-Dec-19 06:34N 33°46' W 118°13'0 0.0
2014-Dec-19 05:34N 33°46' W 118°13'0 0.0
2014-Dec-19 04:34N 33°46' W 118°13'0 0.0
2014-Dec-19 03:34N 33°46' W 118°13'0 0.0
2014-Dec-19 02:33N 33°46' W 118°13'1 1.0
2014-Dec-19 01:31N 33°46' W 118°14'1 0.8
2014-Dec-19 00:34N 33°46' W 118°13'1 1.2
2014-Dec-18 23:33N 33°45' W 118°12'1 0.7
2014-Dec-18 22:25N 33°45' W 118°13'0 0.4
2014-Dec-18 21:09N 33°46' W 118°13'1 0.7
2014-Dec-18 19:26N 33°45' W 118°12'1 0.7
2014-Dec-18 17:33N 33°44' W 118°14'0 0.0
2014-Dec-18 16:33N 33°44' W 118°14'3 0.9
2014-Dec-18 13:32N 33°44' W 118°11'1 1.3
2014-Dec-18 12:30N 33°44' W 118°12'2 2.2
2014-Dec-18 11:34N 33°46' W 118°13'0 0.0
2014-Dec-18 10:34N 33°46' W 118°13'0 0.0
2014-Dec-18 09:34N 33°46' W 118°13'0 0.0
2014-Dec-18 08:33N 33°46' W 118°13'0 0.0
2014-Dec-18 07:34N 33°46' W 118°13'0 0.0
2014-Dec-18 06:33N 33°46' W 118°13'0 0.0
2014-Dec-18 05:33N 33°46' W 118°13'0 0.0
2014-Dec-18 04:34N 33°46' W 118°13'0 0.0
2014-Dec-18 03:34N 33°46' W 118°13'0 0.0
2014-Dec-18 02:33N 33°46' W 118°13'0 0.0
2014-Dec-18 01:34N 33°46' W 118°13'0 0.0
2014-Dec-18 00:34N 33°46' W 118°13'1 1.0
2014-Dec-17 23:34N 33°46' W 118°14'2 0.7
2014-Dec-17 21:04N 33°45' W 118°13'0 0.5
2014-Dec-17 20:19N 33°44' W 118°13'2 2.3
2014-Dec-17 19:31N 33°46' W 118°13'0 0.0
2014-Dec-17 18:34N 33°46' W 118°13'0 0.0
2014-Dec-17 17:28N 33°46' W 118°13'2 2.6
2014-Dec-17 16:33N 33°46' W 118°16'2 0.4
2014-Dec-17 12:05N 33°44' W 118°15'2 2.8
2014-Dec-17 11:24N 33°45' W 118°13'1 1.2
2014-Dec-17 10:33N 33°46' W 118°13'0 0.0
2014-Dec-17 09:33N 33°46' W 118°13'1 1.3
2014-Dec-17 08:33N 33°45' W 118°13'0 0.1
2014-Dec-17 05:33N 33°45' W 118°13'0 0.0
2014-Dec-17 04:33N 33°45' W 118°13'0 0.0
2014-Dec-17 03:33N 33°45' W 118°13'0 0.4
2014-Dec-17 02:31N 33°45' W 118°12'2 1.5
2014-Dec-17 01:03N 33°43' W 118°11'2 3.4
2014-Dec-17 00:33N 33°44' W 118°12'1 0.4
2014-Dec-16 21:18N 33°46' W 118°13'0 0.0
2014-Dec-16 20:33N 33°46' W 118°13'0 0.0
2014-Dec-16 19:29N 33°46' W 118°13'2 1.8
2014-Dec-16 18:21N 33°46' W 118°16'0 0.2
2014-Dec-16 17:33N 33°46' W 118°16'0 0.0
2014-Dec-16 16:20N 33°46' W 118°16'0 0.0
2014-Dec-16 15:32N 33°46' W 118°16'3 2.6
2014-Dec-16 14:32N 33°45' W 118°13'1 0.8
2014-Dec-16 13:33N 33°44' W 118°14'2 1.7
2014-Dec-16 12:33N 33°46' W 118°13'0 0.3
2014-Dec-16 11:33N 33°46' W 118°14'1 0.8
2014-Dec-16 10:33N 33°46' W 118°13'0 0.0
2014-Dec-16 09:33N 33°46' W 118°13'0 0.0
2014-Dec-16 08:33N 33°46' W 118°13'0 0.0
2014-Dec-16 07:33N 33°46' W 118°13'0 0.0
2014-Dec-16 06:33N 33°46' W 118°13'2 0.4
2014-Dec-16 02:17N 33°45' W 118°12'0 0.4
2014-Dec-16 01:04N 33°45' W 118°12'1 0.5
2014-Dec-15 23:33N 33°45' W 118°13'1 0.3
2014-Dec-15 20:15N 33°46' W 118°13'3 1.0
2014-Dec-15 17:11N 33°45' W 118°16'1 0.2
2014-Dec-15 14:20N 33°46' W 118°16'2 0.7
2014-Dec-15 11:33N 33°46' W 118°14'1 0.7
2014-Dec-15 10:33N 33°46' W 118°13'0 0.0
2014-Dec-15 09:33N 33°46' W 118°13'0 0.0
2014-Dec-15 08:33N 33°46' W 118°13'0 0.0
2014-Dec-15 07:33N 33°46' W 118°13'0 0.0
2014-Dec-15 06:33N 33°46' W 118°13'0 0.0
2014-Dec-15 05:33N 33°46' W 118°13'0 0.0
2014-Dec-15 04:33N 33°46' W 118°13'0 0.0
2014-Dec-15 03:33N 33°46' W 118°13'0 0.0
2014-Dec-15 02:33N 33°46' W 118°13'0 0.0
2014-Dec-15 01:33N 33°46' W 118°13'0 0.0
2014-Dec-15 00:33N 33°46' W 118°13'0 0.0
2014-Dec-14 23:33N 33°46' W 118°13'0 0.0
2014-Dec-14 22:33N 33°46' W 118°13'0 0.0
2014-Dec-14 21:33N 33°46' W 118°13'0 0.0
2014-Dec-14 20:33N 33°46' W 118°13'0 0.0
2014-Dec-14 19:33N 33°46' W 118°13'0 0.0
2014-Dec-14 18:33N 33°46' W 118°13'0 0.0
2014-Dec-14 17:33N 33°46' W 118°13'0 0.0
2014-Dec-14 16:33N 33°46' W 118°13'0 0.0
2014-Dec-14 15:33N 33°46' W 118°13'1 1.3
2014-Dec-14 14:33N 33°45' W 118°12'1 1.3
2014-Dec-14 13:32N 33°46' W 118°13'0 0.0
2014-Dec-14 12:33N 33°46' W 118°13'0 0.0
2014-Dec-14 11:33N 33°46' W 118°13'0 0.0
2014-Dec-14 10:33N 33°46' W 118°13'0 0.0
2014-Dec-14 09:33N 33°46' W 118°13'2 1.2
2014-Dec-14 08:13N 33°45' W 118°13'1 1.0
2014-Dec-14 07:31N 33°45' W 118°13'0 0.3
2014-Dec-14 06:32N 33°45' W 118°13'0 0.0
2014-Dec-14 05:04N 33°45' W 118°13'0 0.4
2014-Dec-14 04:04N 33°45' W 118°13'1 0.7
2014-Dec-14 02:33N 33°46' W 118°13'0 0.4
2014-Dec-14 01:33N 33°46' W 118°13'0 0.5
2014-Dec-14 00:33N 33°46' W 118°13'0 0.0
2014-Dec-13 23:33N 33°46' W 118°13'0 0.0
2014-Dec-13 22:33N 33°46' W 118°13'0 0.0
2014-Dec-13 21:33N 33°46' W 118°13'2 1.7
2014-Dec-13 20:32N 33°45' W 118°12'3 2.6
2014-Dec-13 19:22N 33°45' W 118°16'1 0.8
2014-Dec-13 18:27N 33°46' W 118°15'0 0.1
2014-Dec-13 17:30N 33°46' W 118°15'0 0.0
2014-Dec-13 16:19N 33°46' W 118°15'0 0.3
2014-Dec-13 15:33N 33°46' W 118°15'2 2.4
2014-Dec-13 14:33N 33°45' W 118°12'0 0.2
2014-Dec-13 11:33N 33°45' W 118°13'1 1.3
2014-Dec-13 10:33N 33°46' W 118°13'0 0.0
2014-Dec-13 09:33N 33°46' W 118°13'0 0.0
2014-Dec-13 08:33N 33°46' W 118°13'0 0.0
2014-Dec-13 07:33N 33°46' W 118°13'0 0.0
2014-Dec-13 06:33N 33°46' W 118°13'0 0.0
2014-Dec-13 05:33N 33°46' W 118°13'0 0.0
2014-Dec-13 04:33N 33°46' W 118°13'0 0.0
2014-Dec-13 03:33N 33°46' W 118°13'0 0.0
2014-Dec-13 02:33N 33°46' W 118°13'0 0.0
2014-Dec-13 01:33N 33°46' W 118°13'2 0.4
2014-Dec-12 19:04N 33°44' W 118°12'1 0.3
2014-Dec-12 16:06N 33°45' W 118°12'1 0.4
2014-Dec-12 14:30N 33°44' W 118°12'0 0.2
2014-Dec-12 12:24N 33°44' W 118°11'2 1.6
2014-Dec-12 11:19N 33°45' W 118°13'1 1.2
2014-Dec-12 10:21N 33°46' W 118°13'0 0.0
2014-Dec-12 09:33N 33°46' W 118°13'0 0.0
2014-Dec-12 08:33N 33°46' W 118°13'0 0.0
2014-Dec-12 07:33N 33°46' W 118°13'3 0.4
2014-Dec-11 23:18N 33°45' W 118°16'2 2.1
2014-Dec-11 22:09N 33°45' W 118°13'1 1.0
2014-Dec-11 21:31N 33°46' W 118°13'1 0.6
2014-Dec-11 20:30N 33°46' W 118°13'2 1.7
2014-Dec-11 19:33N 33°46' W 118°15'2 0.5
2014-Dec-11 16:33N 33°45' W 118°13'1 0.6
2014-Dec-11 15:32N 33°46' W 118°13'0 0.0
2014-Dec-11 14:29N 33°46' W 118°13'1 0.6
2014-Dec-11 13:33N 33°46' W 118°14'0 0.1
2014-Dec-11 11:33N 33°46' W 118°13'1 0.4
2014-Dec-11 10:25N 33°46' W 118°13'0 0.0
2014-Dec-11 09:31N 33°46' W 118°13'0 0.0
2014-Dec-11 08:31N 33°46' W 118°13'0 0.0
2014-Dec-11 07:31N 33°46' W 118°13'0 0.0
2014-Dec-11 06:30N 33°46' W 118°13'3 2.4
2014-Dec-11 05:22N 33°44' W 118°12'1 0.7
2014-Dec-11 04:26N 33°44' W 118°12'1 1.4
2014-Dec-11 03:29N 33°45' W 118°13'1 0.6
2014-Dec-11 02:33N 33°45' W 118°14'1 1.4
2014-Dec-11 01:33N 33°45' W 118°12'1 1.0
2014-Dec-11 00:32N 33°44' W 118°12'1 0.6
2014-Dec-10 23:32N 33°44' W 118°12'1 1.5
2014-Dec-10 22:33N 33°46' W 118°13'1 0.6
2014-Dec-10 21:33N 33°46' W 118°13'0 0.0
2014-Dec-10 20:33N 33°46' W 118°13'0 0.0
2014-Dec-10 19:33N 33°46' W 118°13'0 0.0
2014-Dec-10 18:33N 33°46' W 118°13'0 0.0
2014-Dec-10 17:33N 33°46' W 118°13'1 1.2
2014-Dec-10 16:33N 33°46' W 118°14'1 1.1
2014-Dec-10 15:32N 33°45' W 118°13'  

Dump ship's entire track history